Time;durP1;ratioP1;P1;durP2;ratioP2;P2;SDS_P1;SDS_P2;PMS_P1;PMS_P2;Temp;Humidity;BMP_temperature;BMP_pressure;BME280_temperature;BME280_humidity;BME280_pressure;Samples;Min_cycle;Max_cycle;Signal;HPM_P1;HPM_P2
2022/04/29 00:02:09;;;;;;;;;;;;;;;;;;5072536;28;19909;-73
2022/04/29 00:04:34;;;;;;;;;;;;;;;;;;5072683;28;19915;-74
2022/04/29 00:07:00;;;;;;;;;;;;;;;;;;5054336;28;19909;-74
2022/04/29 00:09:26;;;;;;;;;;;;;;;;;;5072003;28;20015;-74
2022/04/29 00:11:53;;;;;;;;;;;;;;;;;;5054436;28;19915;-74
2022/04/29 00:14:18;;;;;;;;;;;;;;;;;;5072272;28;19912;-74
2022/04/29 00:16:44;;;;;;;;;;;;;;;;;;5071885;28;20264;-74
2022/04/29 00:19:10;;;;;;;;;;;;;;;;;;5071808;28;20011;-74
2022/04/29 00:21:36;;;;;;;;;;;;;;;;;;5072130;28;19913;-74
2022/04/29 00:24:02;;;;;;;;;;;;;;;;;;5071895;28;19908;-74
2022/04/29 00:26:28;;;;;;;;;;;;;;;;;;5072272;28;19915;-74
2022/04/29 00:28:54;;;;;;;;;;;;;;;;;;5071630;28;20007;-73
2022/04/29 00:31:20;;;;;;;;;;;;;;;;;;5072042;28;19913;-74
2022/04/29 00:33:45;;;;;;;;;;;;;;;;;;5071964;28;19905;-74
2022/04/29 00:36:11;;;;;;;;;;;;;;;;;;5071854;28;19909;-74
2022/04/29 00:38:37;;;;;;;;;;;;;;;;;;5071442;28;20409;-74
2022/04/29 00:41:03;;;;;;;;;;;;;;;;;;5071564;28;20015;-74
2022/04/29 00:43:29;;;;;;;;;;;;;;;;;;5071918;28;19908;-74
2022/04/29 00:45:55;;;;;;;;;;;;;;;;;;5071721;28;20007;-74
2022/04/29 00:48:21;;;;;;;;;;;;;;;;;;5071410;28;19940;-75
2022/04/29 00:50:47;;;;;;;;;;;;;;;;;;5071213;28;20318;-75
2022/04/29 00:53:13;;;;;;;;;;;;;;;;;;5071735;28;19909;-75
2022/04/29 00:55:38;;;;;;;;;;;;;;;;;;5071865;28;19934;-75
2022/04/29 00:58:06;;;;;;;;;;;;;;;;;;5071204;28;19923;-75
2022/04/29 01:00:32;;;;;;;;;;;;;;;;;;5071388;28;19912;-74
2022/04/29 01:02:58;;;;;;;;;;;;;;;;;;5071527;28;19913;-75
2022/04/29 01:05:25;;;;;;;;;;;;;;;;;;5071574;28;19969;-75
2022/04/29 01:07:51;;;;;;;;;;;;;;;;;;5071309;28;19908;-75
2022/04/29 01:10:17;;;;;;;;;;;;;;;;;;5071343;28;19935;-75
2022/04/29 01:12:43;;;;;;;;;;;;;;;;;;5071380;28;20453;-75
2022/04/29 01:15:09;;;;;;;;;;;;;;;;;;5071356;28;19909;-75
2022/04/29 01:17:34;;;;;;;;;;;;;;;;;;5071342;28;20427;-74
2022/04/29 01:20:00;;;;;;;;;;;;;;;;;;5070707;28;20279;-75
2022/04/29 01:22:26;;;;;;;;;;;;;;;;;;5071333;28;19909;-75
2022/04/29 01:24:53;;;;;;;;;;;;;;;;;;5071331;28;19912;-75
2022/04/29 01:27:19;;;;;;;;;;;;;;;;;;5071294;28;19912;-75
2022/04/29 01:29:45;;;;;;;;;;;;;;;;;;5073704;28;20396;-75
2022/04/29 01:32:11;;;;;;;;;;;;;;;;;;5057332;28;20378;-75
2022/04/29 01:34:37;;;;;;;;;;;;;;;;;;5075405;28;20421;-74
2022/04/29 01:37:03;;;;;;;;;;;;;;;;;;5075086;28;20004;-75
2022/04/29 01:39:29;;;;;;;;;;;;;;;;;;5074842;28;19922;-75
2022/04/29 01:41:54;;;;;;;;;;;;;;;;;;5075042;28;19952;-75
2022/04/29 01:44:20;;;;;;;;;;;;;;;;;;5075111;28;20333;-75
2022/04/29 01:46:46;;;;;;;;;;;;;;;;;;5074949;28;19913;-74
2022/04/29 01:49:12;;;;;;;;;;;;;;;;;;5074479;28;19958;-75
2022/04/29 01:51:38;;;;;;;;;;;;;;;;;;5074950;28;20390;-75
2022/04/29 01:54:09;;;;;;;;;;;;;;;;;;5074709;28;19908;-73
2022/04/29 01:56:35;;;;;;;;;;;;;;;;;;5074998;28;20462;-74
2022/04/29 01:59:01;;;;;;;;;;;;;;;;;;5073966;28;19920;-75
2022/04/29 02:01:27;;;;;;;;;;;;;;;;;;5074633;28;19912;-75
2022/04/29 02:03:53;;;;;;;;;;;;;;;;;;5074696;28;19912;-75
2022/04/29 02:06:19;;;;;;;;;;;;;;;;;;5074765;28;19948;-75
2022/04/29 02:08:45;;;;;;;;;;;;;;;;;;5074152;28;19916;-74
2022/04/29 02:11:11;;;;;;;;;;;;;;;;;;5074472;28;20319;-74
2022/04/29 02:13:38;;;;;;;;;;;;;;;;;;5074623;28;19919;-74
2022/04/29 02:16:04;;;;;;;;;;;;;;;;;;5074308;28;19908;-73
2022/04/29 02:18:30;;;;;;;;;;;;;;;;;;5073977;28;19920;-74
2022/04/29 02:20:56;;;;;;;;;;;;;;;;;;5074160;28;20424;-73
2022/04/29 02:23:22;;;;;;;;;;;;;;;;;;5074418;28;19950;-74
2022/04/29 02:25:48;;;;;;;;;;;;;;;;;;5056248;28;20285;-74
2022/04/29 02:28:14;;;;;;;;;;;;;;;;;;5074023;28;19908;-75
2022/04/29 02:30:40;;;;;;;;;;;;;;;;;;5073879;28;19919;-75
2022/04/29 02:33:06;;;;;;;;;;;;;;;;;;5056121;28;20403;-76
2022/04/29 02:35:32;;;;;;;;;;;;;;;;;;5074270;28;20265;-76
2022/04/29 02:37:58;;;;;;;;;;;;;;;;;;5073831;28;20403;-75
2022/04/29 02:40:24;;;;;;;;;;;;;;;;;;5073371;28;19912;-75
2022/04/29 02:42:50;;;;;;;;;;;;;;;;;;5073955;28;19913;-74
2022/04/29 02:45:16;;;;;;;;;;;;;;;;;;5056048;28;19908;-75
2022/04/29 02:47:42;;;;;;;;;;;;;;;;;;5055734;28;19908;-74
2022/04/29 02:50:08;;;;;;;;;;;;;;;;;;5073444;28;20011;-75
2022/04/29 02:52:34;;;;;;;;;;;;;;;;;;5073928;28;20398;-75
2022/04/29 02:54:59;;;;;;;;;;;;;;;;;;5073663;28;19928;-75
2022/04/29 02:57:25;;;;;;;;;;;;;;;;;;5073681;28;20419;-75
2022/04/29 02:59:51;;;;;;;;;;;;;;;;;;5072899;28;19916;-75
2022/04/29 03:02:17;;;;;;;;;;;;;;;;;;5073654;28;19921;-74
2022/04/29 03:04:43;;;;;;;;;;;;;;;;;;5073508;28;19921;-74
2022/04/29 03:07:09;;;;;;;;;;;;;;;;;;5055493;28;20387;-74
2022/04/29 03:09:35;;;;;;;;;;;;;;;;;;5073181;28;19908;-74
2022/04/29 03:12:01;;;;;;;;;;;;;;;;;;5073385;28;20376;-74
2022/04/29 03:14:27;;;;;;;;;;;;;;;;;;5054878;28;20383;-75
2022/04/29 03:16:52;;;;;;;;;;;;;;;;;;5073266;28;19909;-75
2022/04/29 03:19:18;;;;;;;;;;;;;;;;;;5072798;28;19908;-74
2022/04/29 03:21:44;;;;;;;;;;;;;;;;;;5073167;28;20371;-74
2022/04/29 03:24:10;;;;;;;;;;;;;;;;;;5073231;28;19962;-74
2022/04/29 03:26:40;;;;;;;;;;;;;;;;;;5072431;28;20297;-74
2022/04/29 03:29:06;;;;;;;;;;;;;;;;;;5072613;28;19936;-74
2022/04/29 03:31:32;;;;;;;;;;;;;;;;;;5073104;28;19958;-73
2022/04/29 03:33:58;;;;;;;;;;;;;;;;;;5072824;28;19913;-74
2022/04/29 03:36:24;;;;;;;;;;;;;;;;;;5073006;28;20332;-74
2022/04/29 03:38:50;;;;;;;;;;;;;;;;;;5072350;28;19926;-74
2022/04/29 03:41:15;;;;;;;;;;;;;;;;;;5072684;28;19916;-74
2022/04/29 03:43:41;;;;;;;;;;;;;;;;;;5072816;28;19913;-73
2022/04/29 03:46:07;;;;;;;;;;;;;;;;;;5072676;28;20424;-74
2022/04/29 03:49:35;;;;;;;;;;;;;;;;;;5072511;28;19908;-73
2022/04/29 03:51:20;;;;;;;;;;;;;;;;;;5071896;28;19962;-74
2022/04/29 03:53:46;;;;;;;;;;;;;;;;;;5072556;28;19909;-74
2022/04/29 03:56:12;;;;;;;;;;;;;;;;;;5072499;28;19955;-74
2022/04/29 03:58:38;;;;;;;;;;;;;;;;;;5072056;28;20354;-75
2022/04/29 04:01:04;;;;;;;;;;;;;;;;;;5072215;28;19917;-74
2022/04/29 04:03:30;;;;;;;;;;;;;;;;;;5072504;28;20045;-73
2022/04/29 04:08:40;;;;;;;;;;;;;;;;;;5071893;28;20486;-73
2022/04/29 04:11:06;;;;;;;;;;;;;;;;;;5072089;28;19913;-73
2022/04/29 04:13:32;;;;;;;;;;;;;;;;;;5072241;28;19977;-75
2022/04/29 04:15:57;;;;;;;;;;;;;;;;;;5072012;28;19912;-74
2022/04/29 04:18:23;;;;;;;;;;;;;;;;;;5071744;28;20009;-74
2022/04/29 04:20:49;;;;;;;;;;;;;;;;;;5071725;28;19912;-74
2022/04/29 04:23:15;;;;;;;;;;;;;;;;;;5054249;28;19962;-75
2022/04/29 04:25:41;;;;;;;;;;;;;;;;;;5071962;28;19948;-74
2022/04/29 04:28:12;;;;;;;;;;;;;;;;;;5071644;28;20365;-74
2022/04/29 04:30:38;;;;;;;;;;;;;;;;;;5071689;28;19955;-74
2022/04/29 04:33:04;;;;;;;;;;;;;;;;;;5071891;28;19912;-74
2022/04/29 04:35:30;;;;;;;;;;;;;;;;;;5069756;28;19951;-75
2022/04/29 04:37:56;;;;;;;;;;;;;;;;;;5074572;28;20379;-75
2022/04/29 04:40:22;;;;;;;;;;;;;;;;;;5071384;28;19943;-73
2022/04/29 04:42:48;;;;;;;;;;;;;;;;;;5071391;28;19909;-74
2022/04/29 04:45:14;;;;;;;;;;;;;;;;;;5071649;28;20410;-74
2022/04/29 04:47:40;;;;;;;;;;;;;;;;;;5071729;28;20398;-74
2022/04/29 04:50:06;;;;;;;;;;;;;;;;;;5071302;28;19923;-73
2022/04/29 04:52:32;;;;;;;;;;;;;;;;;;5071857;28;20352;-73
2022/04/29 04:54:58;;;;;;;;;;;;;;;;;;5071495;28;19912;-74
2022/04/29 04:57:23;;;;;;;;;;;;;;;;;;5053565;28;19963;-75
2022/04/29 04:59:49;;;;;;;;;;;;;;;;;;5070899;28;19916;-73
2022/04/29 05:02:15;;;;;;;;;;;;;;;;;;5071656;28;19908;-73
2022/04/29 05:04:41;;;;;;;;;;;;;;;;;;5071602;28;19923;-74
2022/04/29 05:07:07;;;;;;;;;;;;;;;;;;5071313;28;19915;-74
2022/04/29 05:09:33;;;;;;;;;;;;;;;;;;5071122;28;19997;-74
2022/04/29 05:11:59;;;;;;;;;;;;;;;;;;5071359;28;20387;-75
2022/04/29 05:14:25;;;;;;;;;;;;;;;;;;5071428;28;19939;-74
2022/04/29 05:16:51;;;;;;;;;;;;;;;;;;5071350;28;19909;-74
2022/04/29 05:19:16;;;;;;;;;;;;;;;;;;5070893;28;19931;-74
2022/04/29 05:21:42;;;;;;;;;;;;;;;;;;5069498;28;19920;-75
2022/04/29 05:24:08;;;;;;;;;;;;;;;;;;5067040;28;19934;-77
2022/04/29 05:26:34;;;;;;;;;;;;;;;;;;5059487;28;19927;-76
2022/04/29 05:29:00;;;;;;;;;;;;;;;;;;5059156;28;19920;-76
2022/04/29 05:31:26;;;;;;;;;;;;;;;;;;5067715;28;20018;-76
2022/04/29 05:33:52;;;;;;;;;;;;;;;;;;5061125;28;20360;-76
2022/04/29 05:36:17;;;;;;;;;;;;;;;;;;5061099;28;19959;-76
2022/04/29 05:44:12;;;;;;;;;;;;;;;;;;5060732;28;19920;-75
2022/04/29 05:46:38;;;;;;;;;;;;;;;;;;5069502;28;19912;-75
2022/04/29 05:49:04;;;;;;;;;;;;;;;;;;5051253;28;19921;-75
2022/04/29 05:51:30;;;;;;;;;;;;;;;;;;5070989;28;19938;-74
2022/04/29 05:53:56;;;;;;;;;;;;;;;;;;5054275;28;19939;-76
2022/04/29 05:56:22;;;;;;;;;;;;;;;;;;5063163;28;19913;-75
2022/04/29 05:58:48;;;;;;;;;;;;;;;;;;5070154;28;19916;-75
2022/04/29 06:01:14;;;;;;;;;;;;;;;;;;5070746;28;19913;-76
2022/04/29 06:03:40;;;;;;;;;;;;;;;;;;5065550;28;20419;-75
2022/04/29 06:06:06;;;;;;;;;;;;;;;;;;5065101;28;19912;-74
2022/04/29 06:08:32;;;;;;;;;;;;;;;;;;5062261;28;19979;-77
2022/04/29 06:10:57;;;;;;;;;;;;;;;;;;5068663;28;19920;-76
2022/04/29 06:13:23;;;;;;;;;;;;;;;;;;5067581;28;19913;-76
2022/04/29 06:15:49;;;;;;;;;;;;;;;;;;5062174;28;19916;-78
2022/04/29 06:18:15;;;;;;;;;;;;;;;;;;5067251;28;19916;-80
2022/04/29 06:20:41;;;;;;;;;;;;;;;;;;5065461;28;19922;-77
2022/04/29 06:23:07;;;;;;;;;;;;;;;;;;5069583;28;19912;-77
2022/04/29 06:25:33;;;;;;;;;;;;;;;;;;5074195;28;19917;-77
2022/04/29 06:27:59;;;;;;;;;;;;;;;;;;5064412;28;20007;-77
2022/04/29 06:30:25;;;;;;;;;;;;;;;;;;5063616;28;19931;-77
2022/04/29 06:32:50;;;;;;;;;;;;;;;;;;5065105;28;19916;-77
2022/04/29 06:35:19;;;;;;;;;;;;;;;;;;5063286;28;19912;-78
2022/04/29 06:37:44;;;;;;;;;;;;;;;;;;5060706;28;19908;-76
2022/04/29 06:40:10;;;;;;;;;;;;;;;;;;5035692;28;19909;-76
2022/04/29 06:42:37;;;;;;;;;;;;;;;;;;5054021;28;19909;-75
2022/04/29 06:45:02;;;;;;;;;;;;;;;;;;5053897;28;19913;-75
2022/04/29 06:47:28;;;;;;;;;;;;;;;;;;5054231;28;20070;-76
2022/04/29 06:49:54;;;;;;;;;;;;;;;;;;5053558;28;19916;-76
2022/04/29 06:52:20;;;;;;;;;;;;;;;;;;5053974;28;19912;-76
2022/04/29 06:54:46;;;;;;;;;;;;;;;;;;5054183;28;19916;-76
2022/04/29 06:57:12;;;;;;;;;;;;;;;;;;5053778;28;20357;-77
2022/04/29 06:59:38;;;;;;;;;;;;;;;;;;5053281;28;19921;-77
2022/04/29 07:02:04;;;;;;;;;;;;;;;;;;5054234;28;19917;-77
2022/04/29 07:04:32;;;;;;;;;;;;;;;;;;5036176;28;20292;-76
2022/04/29 07:06:58;;;;;;;;;;;;;;;;;;5053476;28;19952;-76
2022/04/29 07:09:24;;;;;;;;;;;;;;;;;;5051898;28;19915;-76
2022/04/29 07:11:51;;;;;;;;;;;;;;;;;;5053469;28;20217;-76
2022/04/29 07:14:16;;;;;;;;;;;;;;;;;;5053462;28;19962;-76
2022/04/29 07:16:42;;;;;;;;;;;;;;;;;;5053456;28;19917;-76
2022/04/29 07:19:08;;;;;;;;;;;;;;;;;;5052670;28;19916;-76
2022/04/29 07:21:34;;;;;;;;;;;;;;;;;;5053389;28;20373;-76
2022/04/29 07:24:00;;;;;;;;;;;;;;;;;;5053149;28;19923;-76
2022/04/29 07:26:26;;;;;;;;;;;;;;;;;;5052424;28;19947;-76
2022/04/29 07:28:52;;;;;;;;;;;;;;;;;;5053519;28;19909;-76
2022/04/29 07:31:18;;;;;;;;;;;;;;;;;;5053683;28;20378;-76
2022/04/29 07:33:43;;;;;;;;;;;;;;;;;;5052085;28;19909;-76
2022/04/29 07:41:45;;;;;;;;;;;;;;;;;;5052942;28;19970;-76
2022/04/29 07:44:11;;;;;;;;;;;;;;;;;;5052949;28;19928;-76
2022/04/29 07:46:37;;;;;;;;;;;;;;;;;;5053013;28;19909;-76
2022/04/29 07:49:03;;;;;;;;;;;;;;;;;;5052558;28;20061;-77
2022/04/29 07:51:28;;;;;;;;;;;;;;;;;;5052800;28;19952;-77
2022/04/29 07:53:54;;;;;;;;;;;;;;;;;;5052771;28;19920;-76
2022/04/29 07:56:20;;;;;;;;;;;;;;;;;;5034828;28;19967;-76
2022/04/29 07:58:46;;;;;;;;;;;;;;;;;;5051981;28;19927;-76
2022/04/29 08:01:12;;;;;;;;;;;;;;;;;;5052622;28;19917;-76
2022/04/29 08:03:38;;;;;;;;;;;;;;;;;;5052696;28;19963;-76
2022/04/29 08:06:05;;;;;;;;;;;;;;;;;;5052434;28;20309;-76
2022/04/29 08:08:31;;;;;;;;;;;;;;;;;;5052262;28;19909;-77
2022/04/29 08:10:56;;;;;;;;;;;;;;;;;;5060679;28;19966;-77
2022/04/29 08:13:24;;;;;;;;;;;;;;;;;;5072894;28;19917;-77
2022/04/29 08:15:50;;;;;;;;;;;;;;;;;;5065666;28;19917;-77
2022/04/29 08:18:16;;;;;;;;;;;;;;;;;;5052478;28;19944;-77
2022/04/29 08:20:41;;;;;;;;;;;;;;;;;;5052202;28;20385;-76
2022/04/29 08:23:07;;;;;;;;;;;;;;;;;;5052282;28;19967;-77
2022/04/29 08:25:33;;;;;;;;;;;;;;;;;;5052174;28;19963;-76
2022/04/29 08:28:00;;;;;;;;;;;;;;;;;;5051767;28;19945;-76
2022/04/29 08:30:29;;;;;;;;;;;;;;;;;;5051948;28;20011;-78
2022/04/29 08:32:54;;;;;;;;;;;;;;;;;;5052925;28;19919;-78
2022/04/29 08:35:20;;;;;;;;;;;;;;;;;;5052085;28;19913;-78
2022/04/29 08:37:46;;;;;;;;;;;;;;;;;;5051499;28;19963;-77
2022/04/29 08:40:12;;;;;;;;;;;;;;;;;;5051589;28;20308;-77
2022/04/29 08:42:38;;;;;;;;;;;;;;;;;;5051992;28;19912;-77
2022/04/29 08:45:06;;;;;;;;;;;;;;;;;;5051971;28;19955;-78
2022/04/29 08:47:32;;;;;;;;;;;;;;;;;;5051805;28;20280;-78
2022/04/29 08:49:57;;;;;;;;;;;;;;;;;;5051292;28;20000;-77
2022/04/29 08:52:23;;;;;;;;;;;;;;;;;;5051800;28;19970;-77
2022/04/29 09:00:19;;;;;;;;;;;;;;;;;;5051367;28;19982;-77
2022/04/29 09:02:45;;;;;;;;;;;;;;;;;;5051518;28;20392;-77
2022/04/29 09:05:10;;;;;;;;;;;;;;;;;;5052390;28;19905;-77
2022/04/29 09:07:36;;;;;;;;;;;;;;;;;;5033637;28;19978;-77
2022/04/29 09:10:02;;;;;;;;;;;;;;;;;;5050952;28;20003;-77
2022/04/29 09:12:29;;;;;;;;;;;;;;;;;;5051549;28;20014;-77
2022/04/29 09:14:55;;;;;;;;;;;;;;;;;;5033570;28;19913;-77
2022/04/29 09:17:21;;;;;;;;;;;;;;;;;;5051378;28;19958;-77
2022/04/29 09:19:47;;;;;;;;;;;;;;;;;;5050888;28;19905;-77
2022/04/29 09:22:12;;;;;;;;;;;;;;;;;;5051348;28;20077;-77
2022/04/29 09:24:38;;;;;;;;;;;;;;;;;;5033871;28;19909;-77
2022/04/29 09:27:07;;;;;;;;;;;;;;;;;;5051284;28;19909;-77
2022/04/29 09:29:33;;;;;;;;;;;;;;;;;;5033050;28;19909;-77
2022/04/29 09:31:59;;;;;;;;;;;;;;;;;;5051611;28;20265;-77
2022/04/29 09:34:25;;;;;;;;;;;;;;;;;;5033538;28;19995;-77
2022/04/29 09:36:50;;;;;;;;;;;;;;;;;;5051805;28;20283;-77
2022/04/29 09:39:32;;;;;;;;;;;;;;;;;;5051062;28;19915;-77
2022/04/29 09:41:57;;;;;;;;;;;;;;;;;;5033524;28;20292;-77
2022/04/29 09:44:23;;;;;;;;;;;;;;;;;;5051216;28;19915;-77
2022/04/29 09:46:49;;;;;;;;;;;;;;;;;;5051015;28;19909;-77
2022/04/29 09:49:17;;;;;;;;;;;;;;;;;;5033137;28;19955;-77
2022/04/29 09:51:42;;;;;;;;;;;;;;;;;;5055058;28;20373;-77
2022/04/29 09:54:08;;;;;;;;;;;;;;;;;;5054970;28;20011;-77
2022/04/29 09:56:34;;;;;;;;;;;;;;;;;;5055057;28;19940;-77
2022/04/29 09:59:00;;;;;;;;;;;;;;;;;;5054276;28;19950;-76
2022/04/29 10:01:26;;;;;;;;;;;;;;;;;;5054827;28;19913;-76
2022/04/29 10:03:52;;;;;;;;;;;;;;;;;;5054732;28;20368;-76
2022/04/29 10:06:18;;;;;;;;;;;;;;;;;;5036612;28;19908;-77
2022/04/29 10:08:44;;;;;;;;;;;;;;;;;;5054185;28;19909;-77
2022/04/29 10:11:09;;;;;;;;;;;;;;;;;;5054692;28;20250;-77
2022/04/29 10:13:35;;;;;;;;;;;;;;;;;;5054687;28;19951;-77
2022/04/29 10:16:01;;;;;;;;;;;;;;;;;;5036865;28;19909;-77
2022/04/29 10:21:15;;;;;;;;;;;;;;;;;;5054889;28;20417;-77
2022/04/29 10:23:42;;;;;;;;;;;;;;;;;;5054871;28;19913;-77
2022/04/29 10:26:08;;;;;;;;;;;;;;;;;;5054419;28;19940;-77
2022/04/29 10:28:34;;;;;;;;;;;;;;;;;;5036067;28;19951;-77
2022/04/29 10:31:00;;;;;;;;;;;;;;;;;;5036259;28;19917;-77
2022/04/29 10:33:26;;;;;;;;;;;;;;;;;;5054244;28;19909;-77
2022/04/29 10:35:53;;;;;;;;;;;;;;;;;;5054268;28;19999;-77
2022/04/29 10:38:19;;;;;;;;;;;;;;;;;;5036154;28;20548;-77
2022/04/29 10:40:45;;;;;;;;;;;;;;;;;;5053634;28;19956;-77
2022/04/29 10:43:13;;;;;;;;;;;;;;;;;;5054070;28;19963;-77
2022/04/29 10:45:39;;;;;;;;;;;;;;;;;;5054197;28;19913;-77
2022/04/29 10:48:05;;;;;;;;;;;;;;;;;;5035714;28;19913;-77
2022/04/29 10:50:34;;;;;;;;;;;;;;;;;;5053660;28;19913;-77
2022/04/29 10:53:00;;;;;;;;;;;;;;;;;;5053674;28;20285;-77
2022/04/29 10:55:26;;;;;;;;;;;;;;;;;;5053952;28;19976;-77
2022/04/29 10:57:52;;;;;;;;;;;;;;;;;;5053434;28;20003;-78
2022/04/29 11:00:22;;;;;;;;;;;;;;;;;;5053319;28;19921;-77
2022/04/29 11:02:48;;;;;;;;;;;;;;;;;;5052868;28;19918;-77
2022/04/29 11:05:13;;;;;;;;;;;;;;;;;;5053217;28;19913;-77
2022/04/29 11:07:41;;;;;;;;;;;;;;;;;;5053609;28;20436;-77
2022/04/29 11:10:07;;;;;;;;;;;;;;;;;;5053100;28;19915;-77
2022/04/29 11:12:37;;;;;;;;;;;;;;;;;;5053740;28;20381;-77
2022/04/29 11:15:03;;;;;;;;;;;;;;;;;;5053369;28;19912;-78
2022/04/29 11:17:28;;;;;;;;;;;;;;;;;;5035310;28;19915;-77
2022/04/29 11:19:54;;;;;;;;;;;;;;;;;;5053234;28;20234;-78
2022/04/29 11:25:05;;;;;;;;;;;;;;;;;;5054325;28;19920;-78
2022/04/29 11:27:33;;;;;;;;;;;;;;;;;;5035638;28;19908;-78
2022/04/29 11:30:02;;;;;;;;;;;;;;;;;;5036457;28;19916;-79
2022/04/29 11:32:28;;;;;;;;;;;;;;;;;;5054726;28;20357;-79
2022/04/29 11:34:54;;;;;;;;;;;;;;;;;;5054188;28;19963;-78
2022/04/29 11:37:20;;;;;;;;;;;;;;;;;;5053771;28;19912;-79
2022/04/29 11:39:46;;;;;;;;;;;;;;;;;;5053398;28;19909;-79
2022/04/29 11:42:11;;;;;;;;;;;;;;;;;;5035756;28;19920;-78
2022/04/29 11:44:42;;;;;;;;;;;;;;;;;;5053782;28;19952;-79
2022/04/29 11:47:08;;;;;;;;;;;;;;;;;;5053240;28;19931;-79
2022/04/29 11:49:34;;;;;;;;;;;;;;;;;;5053155;28;20368;-78
2022/04/29 11:52:00;;;;;;;;;;;;;;;;;;5053881;28;19919;-79
2022/04/29 11:54:25;;;;;;;;;;;;;;;;;;5053552;28;20385;-79
2022/04/29 11:56:51;;;;;;;;;;;;;;;;;;5053796;28;19908;-79
2022/04/29 11:59:17;;;;;;;;;;;;;;;;;;5052694;28;19917;-79
2022/04/29 12:01:43;;;;;;;;;;;;;;;;;;5053155;28;19927;-79
2022/04/29 12:04:09;;;;;;;;;;;;;;;;;;5053515;28;19935;-79
2022/04/29 12:06:35;;;;;;;;;;;;;;;;;;5053798;28;20288;-79
2022/04/29 12:09:01;;;;;;;;;;;;;;;;;;5035506;28;19959;-79
2022/04/29 12:11:27;;;;;;;;;;;;;;;;;;5053865;28;19917;-79
2022/04/29 12:13:54;;;;;;;;;;;;;;;;;;5052685;28;19913;-79
2022/04/29 12:16:20;;;;;;;;;;;;;;;;;;5053412;28;19912;-80
2022/04/29 12:18:46;;;;;;;;;;;;;;;;;;5052797;28;20032;-80
2022/04/29 12:21:12;;;;;;;;;;;;;;;;;;5053073;28;20015;-79
2022/04/29 12:23:38;;;;;;;;;;;;;;;;;;5053468;28;19919;-79
2022/04/29 12:26:04;;;;;;;;;;;;;;;;;;5053227;28;19913;-79
2022/04/29 12:28:30;;;;;;;;;;;;;;;;;;5035069;28;19909;-78
2022/04/29 12:36:25;;;;;;;;;;;;;;;;;;5053997;28;19932;-78
2022/04/29 12:38:51;;;;;;;;;;;;;;;;;;5053201;28;20360;-78
2022/04/29 12:41:17;;;;;;;;;;;;;;;;;;5053762;28;19998;-78
2022/04/29 12:43:43;;;;;;;;;;;;;;;;;;5053222;28;19912;-78
2022/04/29 12:46:10;;;;;;;;;;;;;;;;;;5035700;28;20288;-78
2022/04/29 12:48:36;;;;;;;;;;;;;;;;;;5053465;28;19912;-78
2022/04/29 12:51:02;;;;;;;;;;;;;;;;;;5053971;28;19909;-78
2022/04/29 12:53:28;;;;;;;;;;;;;;;;;;5036223;28;19909;-78
2022/04/29 12:55:53;;;;;;;;;;;;;;;;;;5053339;28;20357;-78
2022/04/29 12:58:19;;;;;;;;;;;;;;;;;;5052949;28;19913;-78
2022/04/29 13:00:45;;;;;;;;;;;;;;;;;;5053146;28;19913;-78
2022/04/29 13:03:12;;;;;;;;;;;;;;;;;;5053594;28;19948;-78
2022/04/29 13:05:38;;;;;;;;;;;;;;;;;;5035273;28;20373;-78
2022/04/29 13:08:03;;;;;;;;;;;;;;;;;;5053106;28;19913;-78
2022/04/29 13:10:29;;;;;;;;;;;;;;;;;;5054553;28;19951;-79
2022/04/29 13:12:56;;;;;;;;;;;;;;;;;;5056988;28;19909;-79
2022/04/29 13:15:22;;;;;;;;;;;;;;;;;;5057611;28;19912;-79
2022/04/29 13:17:47;;;;;;;;;;;;;;;;;;5057078;28;19936;-79
2022/04/29 13:20:13;;;;;;;;;;;;;;;;;;5056808;28;19910;-79
2022/04/29 13:22:39;;;;;;;;;;;;;;;;;;5039808;28;20456;-79
2022/04/29 13:25:05;;;;;;;;;;;;;;;;;;5057057;28;19913;-78
2022/04/29 13:27:31;;;;;;;;;;;;;;;;;;5058558;28;19909;-78
2022/04/29 13:29:58;;;;;;;;;;;;;;;;;;5056872;28;19916;-78
2022/04/29 13:32:24;;;;;;;;;;;;;;;;;;5040186;28;20339;-78
2022/04/29 13:34:50;;;;;;;;;;;;;;;;;;5058053;28;19909;-78
2022/04/29 13:37:17;;;;;;;;;;;;;;;;;;5059090;28;19913;-78
2022/04/29 13:39:43;;;;;;;;;;;;;;;;;;5040946;28;19916;-78
2022/04/29 13:42:09;;;;;;;;;;;;;;;;;;5058174;28;19924;-78
2022/04/29 13:44:35;;;;;;;;;;;;;;;;;;5058811;28;19916;-78
2022/04/29 13:47:01;;;;;;;;;;;;;;;;;;5057987;28;20376;-78
2022/04/29 13:49:27;;;;;;;;;;;;;;;;;;5057921;28;19908;-78
2022/04/29 13:51:52;;;;;;;;;;;;;;;;;;5058300;28;19909;-78
2022/04/29 13:54:18;;;;;;;;;;;;;;;;;;5056940;28;19944;-78
2022/04/29 13:56:44;;;;;;;;;;;;;;;;;;5056792;28;19909;-78
2022/04/29 13:59:10;;;;;;;;;;;;;;;;;;5056097;28;20318;-78
2022/04/29 14:01:36;;;;;;;;;;;;;;;;;;5038984;28;20395;-78
2022/04/29 14:04:02;;;;;;;;;;;;;;;;;;5039114;28;19952;-78
2022/04/29 14:06:28;;;;;;;;;;;;;;;;;;5057616;28;19909;-78
2022/04/29 14:08:54;;;;;;;;;;;;;;;;;;5057776;28;20360;-78
2022/04/29 14:11:20;;;;;;;;;;;;;;;;;;5060586;28;19913;-78
2022/04/29 14:13:46;;;;;;;;;;;;;;;;;;5058273;28;19908;-78
2022/04/29 14:16:12;;;;;;;;;;;;;;;;;;5055789;28;19962;-78
2022/04/29 14:18:38;;;;;;;;;;;;;;;;;;5055052;28;20405;-78
2022/04/29 14:21:03;;;;;;;;;;;;;;;;;;5055895;28;19917;-78
2022/04/29 14:23:29;;;;;;;;;;;;;;;;;;5055984;28;20400;-78
2022/04/29 14:25:55;;;;;;;;;;;;;;;;;;5056291;28;19915;-79
2022/04/29 14:28:21;;;;;;;;;;;;;;;;;;5055749;28;20016;-75
2022/04/29 14:30:47;;;;;;;;;;;;;;;;;;5054541;28;19963;-77
2022/04/29 14:33:13;;;;;;;;;;;;;;;;;;5054910;28;19951;-78
2022/04/29 14:35:39;;;;;;;;;;;;;;;;;;5036276;28;19908;-78
2022/04/29 14:38:05;;;;;;;;;;;;;;;;;;5054431;28;19913;-78
2022/04/29 14:40:32;;;;;;;;;;;;;;;;;;5054036;28;19962;-78
2022/04/29 14:42:58;;;;;;;;;;;;;;;;;;5054568;28;19909;-78
2022/04/29 14:45:24;;;;;;;;;;;;;;;;;;5037069;28;19924;-78
2022/04/29 14:47:50;;;;;;;;;;;;;;;;;;5054434;28;20003;-78
2022/04/29 14:50:17;;;;;;;;;;;;;;;;;;5053672;28;19909;-78
2022/04/29 14:52:43;;;;;;;;;;;;;;;;;;5054164;28;19919;-78
2022/04/29 14:55:09;;;;;;;;;;;;;;;;;;5035959;28;19905;-78
2022/04/29 14:57:35;;;;;;;;;;;;;;;;;;5053921;28;20270;-78
2022/04/29 15:00:01;;;;;;;;;;;;;;;;;;5053395;28;19946;-78
2022/04/29 15:02:27;;;;;;;;;;;;;;;;;;5036153;28;19920;-79
2022/04/29 15:04:56;;;;;;;;;;;;;;;;;;5054733;28;20011;-79
2022/04/29 15:07:22;;;;;;;;;;;;;;;;;;5053887;28;20424;-79
2022/04/29 15:15:35;;;;;;;;;;;;;;;;;;5053847;28;19915;-80
2022/04/29 15:18:01;;;;;;;;;;;;;;;;;;5035682;28;19970;-80
2022/04/29 15:20:27;;;;;;;;;;;;;;;;;;5053762;28;20015;-78
2022/04/29 15:22:53;;;;;;;;;;;;;;;;;;5054318;28;19916;-78
2022/04/29 15:25:20;;;;;;;;;;;;;;;;;;5036238;28;20360;-78
2022/04/29 15:27:45;;;;;;;;;;;;;;;;;;5053905;28;19909;-77
2022/04/29 15:30:11;;;;;;;;;;;;;;;;;;5053416;28;19917;-76
2022/04/29 15:32:37;;;;;;;;;;;;;;;;;;5053631;28;19908;-76
2022/04/29 15:35:03;;;;;;;;;;;;;;;;;;5053069;28;20406;-76
2022/04/29 15:37:29;;;;;;;;;;;;;;;;;;5035226;28;20006;-76
2022/04/29 15:39:55;;;;;;;;;;;;;;;;;;5052499;28;19967;-78
2022/04/29 15:42:21;;;;;;;;;;;;;;;;;;5052874;28;19967;-77
2022/04/29 15:44:47;;;;;;;;;;;;;;;;;;5052904;28;19923;-77
2022/04/29 15:47:12;;;;;;;;;;;;;;;;;;5034156;28;19912;-77
2022/04/29 15:49:39;;;;;;;;;;;;;;;;;;5052676;28;20311;-78
2022/04/29 15:52:05;;;;;;;;;;;;;;;;;;5052705;28;19970;-78
2022/04/29 15:54:31;;;;;;;;;;;;;;;;;;5052749;28;19913;-78
2022/04/29 15:56:58;;;;;;;;;;;;;;;;;;5052940;28;20434;-79
2022/04/29 15:59:23;;;;;;;;;;;;;;;;;;5052368;28;19950;-79
2022/04/29 16:01:49;;;;;;;;;;;;;;;;;;5034664;28;20003;-78
2022/04/29 16:04:15;;;;;;;;;;;;;;;;;;5052640;28;19916;-79
2022/04/29 16:06:41;;;;;;;;;;;;;;;;;;5052771;28;19928;-78
2022/04/29 16:09:07;;;;;;;;;;;;;;;;;;5052294;28;19916;-79
2022/04/29 16:11:33;;;;;;;;;;;;;;;;;;5035065;28;19917;-79
2022/04/29 16:13:59;;;;;;;;;;;;;;;;;;5052446;28;19909;-78
2022/04/29 16:16:25;;;;;;;;;;;;;;;;;;5034551;28;19916;-78
2022/04/29 16:21:36;;;;;;;;;;;;;;;;;;5052536;28;19959;-79
2022/04/29 16:26:47;;;;;;;;;;;;;;;;;;5052231;28;19935;-79
2022/04/29 16:29:14;;;;;;;;;;;;;;;;;;5051626;28;20376;-78
2022/04/29 16:31:40;;;;;;;;;;;;;;;;;;5052796;28;19915;-79
2022/04/29 16:34:06;;;;;;;;;;;;;;;;;;5052918;28;19908;-78
2022/04/29 16:36:33;;;;;;;;;;;;;;;;;;5052377;28;19909;-79
2022/04/29 16:38:59;;;;;;;;;;;;;;;;;;5051878;28;19991;-79
2022/04/29 16:41:25;;;;;;;;;;;;;;;;;;5052726;28;20020;-79
2022/04/29 16:43:52;;;;;;;;;;;;;;;;;;5052269;28;19962;-79
2022/04/29 16:46:23;;;;;;;;;;;;;;;;;;5052063;28;19909;-78
2022/04/29 16:48:49;;;;;;;;;;;;;;;;;;5052541;28;19999;-80
2022/04/29 16:51:15;;;;;;;;;;;;;;;;;;5053834;28;20454;-80
2022/04/29 16:53:41;;;;;;;;;;;;;;;;;;5054343;28;19917;-80
2022/04/29 16:56:07;;;;;;;;;;;;;;;;;;5054161;28;20386;-80
2022/04/29 16:58:55;;;;;;;;;;;;;;;;;;5052134;28;20007;-79
2022/04/29 17:01:21;;;;;;;;;;;;;;;;;;5052180;28;19921;-79
2022/04/29 17:03:47;;;;;;;;;;;;;;;;;;5051667;28;19962;-79
2022/04/29 17:06:13;;;;;;;;;;;;;;;;;;5033690;28;19909;-78
2022/04/29 17:08:39;;;;;;;;;;;;;;;;;;5032373;28;19909;-78
2022/04/29 17:11:05;;;;;;;;;;;;;;;;;;5050615;28;19916;-78
2022/04/29 17:13:30;;;;;;;;;;;;;;;;;;5051126;28;19909;-78
2022/04/29 17:15:57;;;;;;;;;;;;;;;;;;5033542;28;20262;-78
2022/04/29 17:18:23;;;;;;;;;;;;;;;;;;5033450;28;19917;-78
2022/04/29 17:20:48;;;;;;;;;;;;;;;;;;5033354;28;19912;-78